sensor_id;sensor_type;location;lat;lon;timestamp;pressure;altitude;pressure_sealevel;temperature;humidity
32237;BME280;18726;44.732;10.550;2022-08-19T00:02:10;100427.19;;;22.09;100.00
32237;BME280;18726;44.732;10.550;2022-08-19T00:05:15;100419.91;;;22.15;100.00
32237;BME280;18726;44.732;10.550;2022-08-19T00:08:19;100415.44;;;22.21;100.00
32237;BME280;18726;44.732;10.550;2022-08-19T00:11:23;100422.84;;;22.24;100.00
32237;BME280;18726;44.732;10.550;2022-08-19T00:14:28;100422.25;;;22.33;100.00
32237;BME280;18726;44.732;10.550;2022-08-19T00:17:34;100417.41;;;22.37;100.00
32237;BME280;18726;44.732;10.550;2022-08-19T00:20:37;100411.78;;;22.41;100.00
32237;BME280;18726;44.732;10.550;2022-08-19T00:23:43;100403.91;;;22.39;100.00
32237;BME280;18726;44.732;10.550;2022-08-19T00:26:48;100412.47;;;22.45;100.00
32237;BME280;18726;44.732;10.550;2022-08-19T00:29:51;100404.53;;;22.47;100.00
32237;BME280;18726;44.732;10.550;2022-08-19T00:32:54;100396.56;;;22.49;100.00
32237;BME280;18726;44.732;10.550;2022-08-19T00:36:02;100380.28;;;22.51;100.00
32237;BME280;18726;44.732;10.550;2022-08-19T00:39:08;100373.44;;;22.55;100.00
32237;BME280;18726;44.732;10.550;2022-08-19T00:42:12;100369.25;;;22.64;100.00
32237;BME280;18726;44.732;10.550;2022-08-19T00:45:21;100370.91;;;22.61;100.00
32237;BME280;18726;44.732;10.550;2022-08-19T00:48:26;100369.34;;;22.60;100.00
32237;BME280;18726;44.732;10.550;2022-08-19T00:51:30;100368.16;;;22.61;100.00
32237;BME280;18726;44.732;10.550;2022-08-19T00:54:37;100380.09;;;22.58;100.00
32237;BME280;18726;44.732;10.550;2022-08-19T00:57:44;100385.19;;;22.60;100.00
32237;BME280;18726;44.732;10.550;2022-08-19T01:00:49;100390.47;;;22.54;100.00
32237;BME280;18726;44.732;10.550;2022-08-19T01:03:53;100402.28;;;22.42;100.00
32237;BME280;18726;44.732;10.550;2022-08-19T04:26:15;100452.19;;;20.40;100.00
32237;BME280;18726;44.732;10.550;2022-08-19T04:29:22;100449.84;;;20.39;100.00
32237;BME280;18726;44.732;10.550;2022-08-19T04:32:27;100448.28;;;20.38;100.00
32237;BME280;18726;44.732;10.550;2022-08-19T04:35:42;100462.81;;;20.42;100.00
32237;BME280;18726;44.732;10.550;2022-08-19T04:38:48;100491.59;;;20.41;100.00
32237;BME280;18726;44.732;10.550;2022-08-19T04:41:51;100486.91;;;20.38;100.00
32237;BME280;18726;44.732;10.550;2022-08-19T04:45:14;100501.19;;;20.29;100.00
32237;BME280;18726;44.732;10.550;2022-08-19T04:48:18;100515.16;;;20.18;100.00
32237;BME280;18726;44.732;10.550;2022-08-19T04:51:29;100510.72;;;20.24;100.00
32237;BME280;18726;44.732;10.550;2022-08-19T04:54:34;100512.16;;;20.33;100.00
32237;BME280;18726;44.732;10.550;2022-08-19T04:57:38;100513.66;;;20.41;100.00
32237;BME280;18726;44.732;10.550;2022-08-19T05:00:45;100507.38;;;20.37;100.00
32237;BME280;18726;44.732;10.550;2022-08-19T05:03:49;100496.22;;;20.20;100.00
32237;BME280;18726;44.732;10.550;2022-08-19T05:06:53;100501.41;;;20.15;100.00
32237;BME280;18726;44.732;10.550;2022-08-19T05:09:57;100506.25;;;20.07;100.00
32237;BME280;18726;44.732;10.550;2022-08-19T05:13:01;100512.16;;;20.06;100.00
32237;BME280;18726;44.732;10.550;2022-08-19T05:16:04;100510.59;;;20.05;100.00
32237;BME280;18726;44.732;10.550;2022-08-19T05:19:08;100510.66;;;20.01;100.00
32237;BME280;18726;44.732;10.550;2022-08-19T05:22:31;100495.28;;;20.00;100.00
32237;BME280;18726;44.732;10.550;2022-08-19T05:25:39;100490.94;;;20.03;100.00
32237;BME280;18726;44.732;10.550;2022-08-19T05:28:43;100488.22;;;19.99;100.00
32237;BME280;18726;44.732;10.550;2022-08-19T05:31:47;100494.09;;;20.01;100.00
32237;BME280;18726;44.732;10.550;2022-08-19T05:34:52;100508.72;;;19.98;100.00
32237;BME280;18726;44.732;10.550;2022-08-19T05:37:56;100505.53;;;20.00;100.00
32237;BME280;18726;44.732;10.550;2022-08-19T05:41:11;100507.88;;;20.01;100.00
32237;BME280;18726;44.732;10.550;2022-08-19T05:44:15;100522.88;;;20.00;100.00
32237;BME280;18726;44.732;10.550;2022-08-19T05:47:20;100541.44;;;19.96;100.00
32237;BME280;18726;44.732;10.550;2022-08-19T05:50:25;100570.75;;;19.83;100.00
32237;BME280;18726;44.732;10.550;2022-08-19T05:53:29;100570.38;;;19.81;100.00
32237;BME280;18726;44.732;10.550;2022-08-19T05:56:33;100550.88;;;19.65;100.00
32237;BME280;18726;44.732;10.550;2022-08-19T05:59:38;100534.59;;;19.40;100.00
32237;BME280;18726;44.732;10.550;2022-08-19T06:02:41;100518.47;;;19.01;100.00
32237;BME280;18726;44.732;10.550;2022-08-19T06:05:45;100525.31;;;19.23;100.00
32237;BME280;18726;44.732;10.550;2022-08-19T06:08:49;100524.34;;;19.40;100.00
32237;BME280;18726;44.732;10.550;2022-08-19T06:11:56;100519.84;;;19.61;100.00
32237;BME280;18726;44.732;10.550;2022-08-19T06:15:06;100513.03;;;19.69;100.00
32237;BME280;18726;44.732;10.550;2022-08-19T06:18:10;100505.06;;;19.78;100.00
32237;BME280;18726;44.732;10.550;2022-08-19T06:21:13;100522.69;;;19.84;100.00
32237;BME280;18726;44.732;10.550;2022-08-19T06:24:21;100523.47;;;19.84;100.00
32237;BME280;18726;44.732;10.550;2022-08-19T06:27:27;100538.50;;;19.80;100.00
32237;BME280;18726;44.732;10.550;2022-08-19T06:30:32;100545.28;;;19.72;100.00
32237;BME280;18726;44.732;10.550;2022-08-19T06:33:36;100548.41;;;19.74;100.00
32237;BME280;18726;44.732;10.550;2022-08-19T06:36:43;100539.97;;;19.88;100.00
32237;BME280;18726;44.732;10.550;2022-08-19T06:39:48;100529.22;;;19.97;100.00
32237;BME280;18726;44.732;10.550;2022-08-19T06:42:52;100518.84;;;20.08;100.00
32237;BME280;18726;44.732;10.550;2022-08-19T06:45:56;100525.69;;;20.23;100.00
32237;BME280;18726;44.732;10.550;2022-08-19T06:49:00;100523.66;;;20.28;100.00
32237;BME280;18726;44.732;10.550;2022-08-19T06:52:04;100531.34;;;20.16;100.00
32237;BME280;18726;44.732;10.550;2022-08-19T06:55:08;100531.06;;;20.07;100.00
32237;BME280;18726;44.732;10.550;2022-08-19T06:58:12;100539.50;;;19.93;100.00
32237;BME280;18726;44.732;10.550;2022-08-19T07:01:18;100530.53;;;19.89;100.00
32237;BME280;18726;44.732;10.550;2022-08-19T07:04:28;100540.34;;;19.90;100.00
32237;BME280;18726;44.732;10.550;2022-08-19T07:07:32;100539.50;;;19.93;100.00
32237;BME280;18726;44.732;10.550;2022-08-19T07:10:37;100545.88;;;19.90;100.00
32237;BME280;18726;44.732;10.550;2022-08-19T07:13:45;100540.97;;;20.01;100.00
32237;BME280;18726;44.732;10.550;2022-08-19T07:16:50;100539.59;;;20.16;100.00
32237;BME280;18726;44.732;10.550;2022-08-19T07:19:55;100544.28;;;20.19;100.00
32237;BME280;18726;44.732;10.550;2022-08-19T07:22:59;100539.31;;;20.38;100.00
32237;BME280;18726;44.732;10.550;2022-08-19T07:26:08;100549.41;;;20.75;100.00
32237;BME280;18726;44.732;10.550;2022-08-19T07:29:12;100559.63;;;21.25;100.00
32237;BME280;18726;44.732;10.550;2022-08-19T07:32:16;100567.63;;;21.62;100.00
32237;BME280;18726;44.732;10.550;2022-08-19T07:35:20;100571.25;;;21.79;100.00
32237;BME280;18726;44.732;10.550;2022-08-19T07:38:24;100566.34;;;22.06;100.00
32237;BME280;18726;44.732;10.550;2022-08-19T07:41:29;100569.22;;;22.39;100.00
32237;BME280;18726;44.732;10.550;2022-08-19T07:44:34;100574.03;;;23.03;100.00
32237;BME280;18726;44.732;10.550;2022-08-19T07:47:38;100572.72;;;23.24;100.00
32237;BME280;18726;44.732;10.550;2022-08-19T07:50:43;100576.38;;;23.66;100.00
32237;BME280;18726;44.732;10.550;2022-08-19T07:53:47;100577.25;;;24.17;100.00
32237;BME280;18726;44.732;10.550;2022-08-19T07:56:54;100586.41;;;24.56;100.00
32237;BME280;18726;44.732;10.550;2022-08-19T07:59:58;100585.19;;;24.70;100.00
32237;BME280;18726;44.732;10.550;2022-08-19T08:03:02;100580.19;;;24.65;100.00
32237;BME280;18726;44.732;10.550;2022-08-19T08:06:06;100583.31;;;24.41;100.00
32237;BME280;18726;44.732;10.550;2022-08-19T08:09:35;100581.94;;;24.84;100.00
32237;BME280;18726;44.732;10.550;2022-08-19T08:12:39;100584.19;;;25.02;100.00
32237;BME280;18726;44.732;10.550;2022-08-19T08:15:44;100582.00;;;25.18;100.00
32237;BME280;18726;44.732;10.550;2022-08-19T08:18:48;100586.81;;;25.52;100.00
32237;BME280;18726;44.732;10.550;2022-08-19T08:21:53;100582.81;;;25.75;100.00
32237;BME280;18726;44.732;10.550;2022-08-19T08:25:01;100588.31;;;26.10;100.00
32237;BME280;18726;44.732;10.550;2022-08-19T08:28:05;100580.91;;;26.38;100.00
32237;BME280;18726;44.732;10.550;2022-08-19T08:31:10;100587.94;;;26.61;100.00
32237;BME280;18726;44.732;10.550;2022-08-19T08:34:14;100575.38;;;26.96;100.00
32237;BME280;18726;44.732;10.550;2022-08-19T08:37:18;100576.50;;;29.31;100.00
32237;BME280;18726;44.732;10.550;2022-08-19T08:43:35;100585.19;;;32.39;72.55
32237;BME280;18726;44.732;10.550;2022-08-19T08:46:50;100586.16;;;32.31;70.36
32237;BME280;18726;44.732;10.550;2022-08-19T08:50:01;100587.41;;;31.52;71.56
32237;BME280;18726;44.732;10.550;2022-08-19T08:53:08;100587.56;;;31.02;79.22
32237;BME280;18726;44.732;10.550;2022-08-19T08:56:12;100589.34;;;30.50;84.95
32237;BME280;18726;44.732;10.550;2022-08-19T08:59:36;100601.03;;;30.34;80.02
32237;BME280;18726;44.732;10.550;2022-08-19T09:02:43;100601.16;;;30.25;83.36
32237;BME280;18726;44.732;10.550;2022-08-19T09:12:23;100604.44;;;29.94;84.52
32237;BME280;18726;44.732;10.550;2022-08-19T09:15:35;100605.78;;;30.42;79.44
32237;BME280;18726;44.732;10.550;2022-08-19T09:21:44;100611.63;;;31.49;74.91
32237;BME280;18726;44.732;10.550;2022-08-19T09:24:50;100618.88;;;31.36;73.89
32237;BME280;18726;44.732;10.550;2022-08-19T09:27:55;100610.38;;;32.22;71.19
32237;BME280;18726;44.732;10.550;2022-08-19T09:31:00;100610.66;;;32.99;66.35
32237;BME280;18726;44.732;10.550;2022-08-19T09:34:03;100621.78;;;33.19;62.46
32237;BME280;18726;44.732;10.550;2022-08-19T09:37:10;100624.31;;;33.17;62.38
32237;BME280;18726;44.732;10.550;2022-08-19T09:40:13;100619.88;;;33.47;66.12
32237;BME280;18726;44.732;10.550;2022-08-19T09:43:17;100612.25;;;33.76;62.80
32237;BME280;18726;44.732;10.550;2022-08-19T09:46:24;100609.47;;;34.71;61.10
32237;BME280;18726;44.732;10.550;2022-08-19T09:49:28;100613.84;;;34.89;60.08
32237;BME280;18726;44.732;10.550;2022-08-19T09:52:32;100607.63;;;34.96;59.28
32237;BME280;18726;44.732;10.550;2022-08-19T09:55:41;100604.88;;;34.01;62.34
32237;BME280;18726;44.732;10.550;2022-08-19T09:58:45;100612.81;;;34.69;61.38
32237;BME280;18726;44.732;10.550;2022-08-19T10:01:50;100618.16;;;35.01;56.05
32237;BME280;18726;44.732;10.550;2022-08-19T10:04:55;100616.66;;;34.77;58.54
32237;BME280;18726;44.732;10.550;2022-08-19T10:08:21;100612.59;;;34.06;57.77
32237;BME280;18726;44.732;10.550;2022-08-19T10:11:25;100610.28;;;34.04;59.53
32237;BME280;18726;44.732;10.550;2022-08-19T10:14:30;100602.19;;;33.52;61.92
32237;BME280;18726;44.732;10.550;2022-08-19T10:17:34;100597.25;;;33.31;70.68
32237;BME280;18726;44.732;10.550;2022-08-19T10:20:38;100599.84;;;33.34;69.78
32237;BME280;18726;44.732;10.550;2022-08-19T10:23:44;100594.13;;;33.23;70.42
32237;BME280;18726;44.732;10.550;2022-08-19T10:26:49;100592.25;;;33.03;68.14
32237;BME280;18726;44.732;10.550;2022-08-19T10:29:53;100586.06;;;32.51;68.92
32237;BME280;18726;44.732;10.550;2022-08-19T10:32:57;100578.50;;;32.05;72.38
32237;BME280;18726;44.732;10.550;2022-08-19T10:36:07;100575.78;;;31.85;79.84
32237;BME280;18726;44.732;10.550;2022-08-19T10:39:12;100581.78;;;31.52;67.01
32237;BME280;18726;44.732;10.550;2022-08-19T10:42:16;100572.09;;;31.53;67.85
32237;BME280;18726;44.732;10.550;2022-08-19T10:45:23;100572.09;;;31.73;72.61
32237;BME280;18726;44.732;10.550;2022-08-19T10:48:29;100566.88;;;31.66;69.46
32237;BME280;18726;44.732;10.550;2022-08-19T10:51:32;100569.94;;;31.88;72.57
32237;BME280;18726;44.732;10.550;2022-08-19T10:54:54;100557.28;;;32.36;70.21
32237;BME280;18726;44.732;10.550;2022-08-19T10:58:19;100553.88;;;32.63;62.98
32237;BME280;18726;44.732;10.550;2022-08-19T11:01:27;100557.59;;;32.80;61.17
32237;BME280;18726;44.732;10.550;2022-08-19T11:04:33;100555.88;;;32.94;62.22
32237;BME280;18726;44.732;10.550;2022-08-19T11:07:41;100542.84;;;32.97;58.94
32237;BME280;18726;44.732;10.550;2022-08-19T11:10:45;100547.50;;;33.11;59.90
32237;BME280;18726;44.732;10.550;2022-08-19T11:13:49;100548.69;;;32.93;55.80
32237;BME280;18726;44.732;10.550;2022-08-19T11:16:53;100541.28;;;32.96;65.72
32237;BME280;18726;44.732;10.550;2022-08-19T11:19:59;100547.47;;;33.05;58.36
32237;BME280;18726;44.732;10.550;2022-08-19T11:23:06;100541.41;;;33.18;61.53
32237;BME280;18726;44.732;10.550;2022-08-19T11:26:10;100553.38;;;33.07;60.62
32237;BME280;18726;44.732;10.550;2022-08-19T11:29:16;100554.09;;;32.97;57.78
32237;BME280;18726;44.732;10.550;2022-08-19T11:32:20;100548.53;;;33.08;60.84
32237;BME280;18726;44.732;10.550;2022-08-19T11:35:24;100548.72;;;32.99;63.09
32237;BME280;18726;44.732;10.550;2022-08-19T11:38:27;100561.69;;;32.79;62.14
32237;BME280;18726;44.732;10.550;2022-08-19T11:41:31;100557.88;;;32.82;62.04
32237;BME280;18726;44.732;10.550;2022-08-19T11:44:35;100564.06;;;32.98;63.69
32237;BME280;18726;44.732;10.550;2022-08-19T11:47:39;100557.06;;;33.30;62.34
32237;BME280;18726;44.732;10.550;2022-08-19T11:50:42;100551.63;;;33.21;56.12
32237;BME280;18726;44.732;10.550;2022-08-19T11:53:46;100550.41;;;33.33;57.57
32237;BME280;18726;44.732;10.550;2022-08-19T11:56:50;100549.22;;;33.68;55.90
32237;BME280;18726;44.732;10.550;2022-08-19T11:59:54;100553.59;;;33.85;54.63
32237;BME280;18726;44.732;10.550;2022-08-19T12:02:58;100549.28;;;34.01;57.05
32237;BME280;18726;44.732;10.550;2022-08-19T12:06:06;100545.16;;;34.02;51.61
32237;BME280;18726;44.732;10.550;2022-08-19T12:09:10;100539.41;;;33.35;46.90
32237;BME280;18726;44.732;10.550;2022-08-19T12:12:14;100533.47;;;32.68;59.92
32237;BME280;18726;44.732;10.550;2022-08-19T12:15:18;100531.72;;;33.30;65.17
32237;BME280;18726;44.732;10.550;2022-08-19T12:18:21;100519.13;;;33.20;55.08
32237;BME280;18726;44.732;10.550;2022-08-19T12:21:26;100519.97;;;33.37;58.97
32237;BME280;18726;44.732;10.550;2022-08-19T12:24:33;100522.53;;;33.35;55.44
32237;BME280;18726;44.732;10.550;2022-08-19T12:27:38;100512.50;;;33.29;59.83
32237;BME280;18726;44.732;10.550;2022-08-19T12:30:42;100521.09;;;32.17;56.45
32237;BME280;18726;44.732;10.550;2022-08-19T12:33:47;100511.69;;;32.20;66.21
32237;BME280;18726;44.732;10.550;2022-08-19T12:36:50;100525.41;;;32.44;59.76
32237;BME280;18726;44.732;10.550;2022-08-19T12:39:54;100521.72;;;32.70;58.21
32237;BME280;18726;44.732;10.550;2022-08-19T12:42:57;100505.88;;;32.72;58.15
32237;BME280;18726;44.732;10.550;2022-08-19T12:46:02;100512.38;;;32.47;59.93
32237;BME280;18726;44.732;10.550;2022-08-19T12:49:07;100505.63;;;32.28;66.38
32237;BME280;18726;44.732;10.550;2022-08-19T12:52:11;100499.69;;;32.68;63.79
32237;BME280;18726;44.732;10.550;2022-08-19T12:55:18;100490.75;;;32.70;63.29
32237;BME280;18726;44.732;10.550;2022-08-19T12:58:22;100489.06;;;32.83;63.66
32237;BME280;18726;44.732;10.550;2022-08-19T13:01:27;100485.13;;;32.70;63.13
32237;BME280;18726;44.732;10.550;2022-08-19T13:04:35;100485.63;;;31.88;58.64
32237;BME280;18726;44.732;10.550;2022-08-19T13:07:47;100476.78;;;30.98;68.41
32237;BME280;18726;44.732;10.550;2022-08-19T13:10:51;100471.84;;;31.33;64.88
32237;BME280;18726;44.732;10.550;2022-08-19T13:13:58;100479.31;;;30.96;62.96
32237;BME280;18726;44.732;10.550;2022-08-19T13:17:02;100472.19;;;30.39;65.82
32237;BME280;18726;44.732;10.550;2022-08-19T13:20:12;100476.63;;;31.07;69.03
32237;BME280;18726;44.732;10.550;2022-08-19T13:23:19;100475.16;;;31.11;65.09
32237;BME280;18726;44.732;10.550;2022-08-19T13:26:23;100469.47;;;31.26;69.86
32237;BME280;18726;44.732;10.550;2022-08-19T13:29:27;100468.63;;;31.20;67.10
32237;BME280;18726;44.732;10.550;2022-08-19T13:32:49;100471.28;;;31.29;63.92
32237;BME280;18726;44.732;10.550;2022-08-19T13:36:12;100477.59;;;31.50;63.92
32237;BME280;18726;44.732;10.550;2022-08-19T13:39:15;100478.50;;;31.62;64.41
32237;BME280;18726;44.732;10.550;2022-08-19T13:42:19;100478.06;;;31.69;68.55
32237;BME280;18726;44.732;10.550;2022-08-19T13:45:25;100469.69;;;31.48;66.89
32237;BME280;18726;44.732;10.550;2022-08-19T13:48:29;100465.72;;;31.35;65.04
32237;BME280;18726;44.732;10.550;2022-08-19T13:51:34;100461.94;;;31.12;69.42
32237;BME280;18726;44.732;10.550;2022-08-19T13:54:38;100460.94;;;31.15;65.54
32237;BME280;18726;44.732;10.550;2022-08-19T13:57:42;100464.97;;;31.34;67.94
32237;BME280;18726;44.732;10.550;2022-08-19T14:00:46;100464.63;;;31.27;64.13
32237;BME280;18726;44.732;10.550;2022-08-19T14:03:51;100461.91;;;30.51;62.36
32237;BME280;18726;44.732;10.550;2022-08-19T14:06:57;100463.75;;;30.74;74.90
32237;BME280;18726;44.732;10.550;2022-08-19T14:10:16;100474.53;;;31.22;70.65
32237;BME280;18726;44.732;10.550;2022-08-19T14:13:22;100471.88;;;31.65;67.60
32237;BME280;18726;44.732;10.550;2022-08-19T14:16:26;100473.06;;;31.84;67.19
32237;BME280;18726;44.732;10.550;2022-08-19T14:19:32;100473.41;;;31.66;61.97
32237;BME280;18726;44.732;10.550;2022-08-19T14:22:42;100475.56;;;31.50;61.46
32237;BME280;18726;44.732;10.550;2022-08-19T14:25:46;100472.94;;;31.15;59.09
32237;BME280;18726;44.732;10.550;2022-08-19T14:28:49;100468.28;;;30.92;65.60
32237;BME280;18726;44.732;10.550;2022-08-19T14:31:54;100452.09;;;30.41;59.77
32237;BME280;18726;44.732;10.550;2022-08-19T14:34:57;100456.09;;;29.99;63.31
32237;BME280;18726;44.732;10.550;2022-08-19T14:38:05;100454.91;;;29.91;65.59
32237;BME280;18726;44.732;10.550;2022-08-19T14:41:21;100444.59;;;29.38;63.83
32237;BME280;18726;44.732;10.550;2022-08-19T14:44:26;100450.22;;;29.68;69.08
32237;BME280;18726;44.732;10.550;2022-08-19T14:47:30;100451.50;;;30.37;72.08
32237;BME280;18726;44.732;10.550;2022-08-19T14:50:35;100459.38;;;30.94;68.30
32237;BME280;18726;44.732;10.550;2022-08-19T14:53:40;100448.47;;;31.16;64.37
32237;BME280;18726;44.732;10.550;2022-08-19T14:56:44;100465.16;;;30.64;61.27
32237;BME280;18726;44.732;10.550;2022-08-19T14:59:48;100453.69;;;30.27;63.58
32237;BME280;18726;44.732;10.550;2022-08-19T15:02:52;100452.84;;;30.56;69.07
32237;BME280;18726;44.732;10.550;2022-08-19T15:05:58;100458.16;;;30.19;65.36
32237;BME280;18726;44.732;10.550;2022-08-19T15:09:02;100464.47;;;29.84;63.10
32237;BME280;18726;44.732;10.550;2022-08-19T15:12:06;100472.06;;;30.13;70.65
32237;BME280;18726;44.732;10.550;2022-08-19T15:15:12;100467.66;;;30.42;69.32
32237;BME280;18726;44.732;10.550;2022-08-19T15:18:16;100459.22;;;30.57;70.19
32237;BME280;18726;44.732;10.550;2022-08-19T15:21:21;100468.38;;;30.77;72.08
32237;BME280;18726;44.732;10.550;2022-08-19T15:24:25;100471.28;;;30.83;73.08
32237;BME280;18726;44.732;10.550;2022-08-19T15:27:28;100466.41;;;30.63;70.40
32237;BME280;18726;44.732;10.550;2022-08-19T15:30:32;100461.38;;;29.97;68.38
32237;BME280;18726;44.732;10.550;2022-08-19T15:33:37;100452.88;;;29.77;67.54
32237;BME280;18726;44.732;10.550;2022-08-19T15:36:40;100449.53;;;29.43;70.34
32237;BME280;18726;44.732;10.550;2022-08-19T15:39:44;100450.25;;;29.29;71.99
32237;BME280;18726;44.732;10.550;2022-08-19T15:42:49;100446.81;;;29.34;76.00
32237;BME280;18726;44.732;10.550;2022-08-19T15:45:52;100442.72;;;29.20;72.14
32237;BME280;18726;44.732;10.550;2022-08-19T15:48:56;100448.94;;;29.39;76.66
32237;BME280;18726;44.732;10.550;2022-08-19T15:52:00;100446.75;;;29.05;73.96
32237;BME280;18726;44.732;10.550;2022-08-19T15:55:04;100450.91;;;28.47;73.65
32237;BME280;18726;44.732;10.550;2022-08-19T15:58:12;100450.94;;;28.38;77.66
32237;BME280;18726;44.732;10.550;2022-08-19T16:01:34;100447.97;;;28.65;86.20
32237;BME280;18726;44.732;10.550;2022-08-19T16:04:57;100453.28;;;28.87;79.66
32237;BME280;18726;44.732;10.550;2022-08-19T16:08:19;100452.31;;;28.66;74.07
32237;BME280;18726;44.732;10.550;2022-08-19T16:11:26;100450.59;;;28.45;76.34
32237;BME280;18726;44.732;10.550;2022-08-19T16:14:34;100468.31;;;28.42;74.25
32237;BME280;18726;44.732;10.550;2022-08-19T16:17:38;100462.13;;;28.38;80.53
32237;BME280;18726;44.732;10.550;2022-08-19T16:20:45;100461.78;;;28.45;77.03
32237;BME280;18726;44.732;10.550;2022-08-19T16:23:49;100463.50;;;28.42;76.76
32237;BME280;18726;44.732;10.550;2022-08-19T16:26:53;100465.66;;;28.47;84.02
32237;BME280;18726;44.732;10.550;2022-08-19T16:29:56;100467.31;;;28.54;82.84
32237;BME280;18726;44.732;10.550;2022-08-19T16:33:00;100462.81;;;28.56;83.64
32237;BME280;18726;44.732;10.550;2022-08-19T16:36:04;100455.28;;;28.63;82.26
32237;BME280;18726;44.732;10.550;2022-08-19T16:39:10;100466.47;;;28.63;83.28
32237;BME280;18726;44.732;10.550;2022-08-19T16:42:14;100466.00;;;28.64;82.73
32237;BME280;18726;44.732;10.550;2022-08-19T16:45:18;100468.78;;;28.64;82.34
32237;BME280;18726;44.732;10.550;2022-08-19T16:48:28;100469.44;;;28.59;80.26
32237;BME280;18726;44.732;10.550;2022-08-19T16:51:33;100468.75;;;28.49;79.13
32237;BME280;18726;44.732;10.550;2022-08-19T16:54:37;100473.31;;;28.38;80.53
32237;BME280;18726;44.732;10.550;2022-08-19T16:57:41;100468.06;;;28.31;83.44
32237;BME280;18726;44.732;10.550;2022-08-19T17:00:45;100468.25;;;28.27;84.52
32237;BME280;18726;44.732;10.550;2022-08-19T17:03:51;100468.44;;;28.14;87.35
32237;BME280;18726;44.732;10.550;2022-08-19T17:06:55;100464.31;;;28.01;89.37
32237;BME280;18726;44.732;10.550;2022-08-19T17:09:59;100458.16;;;27.87;90.59
32237;BME280;18726;44.732;10.550;2022-08-19T17:13:04;100472.31;;;27.75;91.37
32237;BME280;18726;44.732;10.550;2022-08-19T17:16:11;100469.84;;;27.68;90.83
32237;BME280;18726;44.732;10.550;2022-08-19T17:19:16;100474.50;;;27.71;91.01
32237;BME280;18726;44.732;10.550;2022-08-19T17:22:20;100469.97;;;27.73;91.75
32237;BME280;18726;44.732;10.550;2022-08-19T17:25:25;100480.09;;;27.71;92.13
32237;BME280;18726;44.732;10.550;2022-08-19T17:28:30;100486.47;;;27.62;93.03
32237;BME280;18726;44.732;10.550;2022-08-19T17:31:35;100493.09;;;27.55;95.43
32237;BME280;18726;44.732;10.550;2022-08-19T17:34:39;100495.31;;;27.42;96.08
32237;BME280;18726;44.732;10.550;2022-08-19T17:37:43;100499.03;;;27.30;98.17
32237;BME280;18726;44.732;10.550;2022-08-19T17:40:47;100499.63;;;27.16;100.00
32237;BME280;18726;44.732;10.550;2022-08-19T17:43:51;100508.94;;;27.04;100.00
32237;BME280;18726;44.732;10.550;2022-08-19T17:46:55;100506.25;;;26.91;100.00
32237;BME280;18726;44.732;10.550;2022-08-19T17:49:58;100513.09;;;26.81;100.00
32237;BME280;18726;44.732;10.550;2022-08-19T17:53:03;100512.88;;;26.66;100.00
32237;BME280;18726;44.732;10.550;2022-08-19T17:56:06;100511.34;;;26.56;100.00
32237;BME280;18726;44.732;10.550;2022-08-19T17:59:11;100520.88;;;26.46;100.00
32237;BME280;18726;44.732;10.550;2022-08-19T18:02:15;100513.28;;;26.37;100.00
32237;BME280;18726;44.732;10.550;2022-08-19T18:05:23;100522.34;;;26.29;100.00
32237;BME280;18726;44.732;10.550;2022-08-19T18:08:27;100520.94;;;26.24;100.00
32237;BME280;18726;44.732;10.550;2022-08-19T18:11:31;100526.66;;;26.20;100.00
32237;BME280;18726;44.732;10.550;2022-08-19T18:14:36;100530.03;;;26.15;100.00
32237;BME280;18726;44.732;10.550;2022-08-19T18:17:42;100532.63;;;26.10;100.00
32237;BME280;18726;44.732;10.550;2022-08-19T18:20:45;100536.78;;;26.05;100.00
32237;BME280;18726;44.732;10.550;2022-08-19T18:23:48;100534.41;;;25.95;100.00
32237;BME280;18726;44.732;10.550;2022-08-19T18:26:52;100549.38;;;25.88;100.00
32237;BME280;18726;44.732;10.550;2022-08-19T18:29:56;100545.09;;;25.74;100.00
32237;BME280;18726;44.732;10.550;2022-08-19T18:33:04;100552.31;;;25.50;100.00
32237;BME280;18726;44.732;10.550;2022-08-19T18:36:11;100549.44;;;25.19;100.00
32237;BME280;18726;44.732;10.550;2022-08-19T18:39:15;100545.81;;;25.09;100.00
32237;BME280;18726;44.732;10.550;2022-08-19T18:42:43;100551.50;;;25.06;100.00
32237;BME280;18726;44.732;10.550;2022-08-19T18:46:06;100553.94;;;25.04;100.00
32237;BME280;18726;44.732;10.550;2022-08-19T18:49:31;100559.72;;;24.97;100.00
32237;BME280;18726;44.732;10.550;2022-08-19T18:52:36;100548.38;;;24.91;100.00
32237;BME280;18726;44.732;10.550;2022-08-19T18:55:39;100553.31;;;24.62;100.00
32237;BME280;18726;44.732;10.550;2022-08-19T18:58:43;100559.41;;;24.31;100.00
32237;BME280;18726;44.732;10.550;2022-08-19T19:01:47;100559.69;;;24.08;100.00
32237;BME280;18726;44.732;10.550;2022-08-19T19:04:53;100563.88;;;23.87;100.00
32237;BME280;18726;44.732;10.550;2022-08-19T19:07:59;100561.84;;;23.75;100.00
32237;BME280;18726;44.732;10.550;2022-08-19T19:11:03;100568.06;;;23.79;100.00
32237;BME280;18726;44.732;10.550;2022-08-19T19:14:11;100575.72;;;23.75;100.00
32237;BME280;18726;44.732;10.550;2022-08-19T19:17:15;100575.00;;;23.58;100.00
32237;BME280;18726;44.732;10.550;2022-08-19T19:20:19;100580.97;;;23.40;100.00
32237;BME280;18726;44.732;10.550;2022-08-19T19:23:23;100584.34;;;23.48;100.00
32237;BME280;18726;44.732;10.550;2022-08-19T19:26:27;100575.00;;;23.58;100.00